Terminal Aerodrome Forecast
Issued by NWS

Home | Current Version | Previous Version | Text Only | Print | Product List | Glossary On
Versions: 1 2 3 4 5 6 7 8 9 10 11 12 13
000
FTUS42 KMLB 252300 RRA
TAFTIX
TAF
KTIX 252342Z 2600/2624 15006KT P6SM VCSH SCT030 BKN070
     FM260200 22004KT P6SM FEW040 BKN250
     FM261400 21005KT P6SM SCT020 SCT250
     FM261800 24005KT P6SM VCTS SCT035CB SCT080
      AMD NOT SKED 2601/2611=

USA.gov is the U.S. government's official web portal to all federal, state and local government web resources and services.